Belle Mead, New Jersey
Current Conditions -  °F | °C
As of 7:18 AM on Sunday 21 Dec 2014 (Local Time) from KSMQ Reporting Station
Overcast Overcast  
Wind Chill: 32°   Ceiling: 3000
Heat Index: 32°   Visibility: 10mi
Dew Point: 22°   Wind: 3mph
Humidity: 66%   Direction: 340°NNW
Pressure: 30.29"   Gusts: NA
Location:  40.47°N, 74.66°W
Report Text: KSMQ 211218Z AUTO 34003KT 10SM OVC030 00/M06 A3029 RMK AO2 T00001056
Loading
Personal Weather Stations






























Interactive Weather Map New forecast layout! Learn more

10-Day Weather Forecast

Advertisements
Track Severe Weather on mobile